Braine-l'Alleud, Belgium
Current Conditions -  °F | °C
As of 5:50 AM on Saturday 29 Nov 2014 (Local Time) from EBCI Reporting Station
Clear Clear  
Wind Chill: 37°   Ceiling: Unl
Heat Index: 37°   Visibility: 4mi
Dew Point: 36°   Wind: 3mph
Humidity: 93%   Direction: 110°ESE
Pressure: 29.85"   Gusts: NA
Location:  50.68°N, 4.37°E
Report Text: EBCI 290450Z 11003KT 7000 NSC 03/02 Q1011 NOSIG
Loading
Personal Weather Stations






























Interactive Weather Map New forecast layout! Learn more

10-Day Weather Forecast

Advertisements
Track Severe Weather on mobile